sensor_id;sensor_type;location;lat;lon;timestamp;pressure;altitude;pressure_sealevel;temperature;humidity
21742;BME280;11033;47.490;11.116;2022-10-04T00:00:09;93807.28;;;9.68;84.03
21742;BME280;11033;47.490;11.116;2022-10-04T00:02:35;93795.66;;;9.46;85.39
21742;BME280;11033;47.490;11.116;2022-10-04T00:05:06;93796.31;;;9.48;83.88
21742;BME280;11033;47.490;11.116;2022-10-04T00:07:53;93799.28;;;9.45;83.48
21742;BME280;11033;47.490;11.116;2022-10-04T00:10:23;93805.53;;;9.36;85.27
21742;BME280;11033;47.490;11.116;2022-10-04T00:13:02;93806.19;;;9.30;83.82
21742;BME280;11033;47.490;11.116;2022-10-04T00:15:36;93799.28;;;9.29;83.29
21742;BME280;11033;47.490;11.116;2022-10-04T00:18:31;93800.28;;;9.20;84.07
21742;BME280;11033;47.490;11.116;2022-10-04T00:21:03;93799.28;;;9.05;85.21
21742;BME280;11033;47.490;11.116;2022-10-04T00:23:42;93806.53;;;9.11;84.43
21742;BME280;11033;47.490;11.116;2022-10-04T00:26:13;93808.31;;;9.02;83.43
21742;BME280;11033;47.490;11.116;2022-10-04T00:28:45;93813.41;;;8.79;86.28
21742;BME280;11033;47.490;11.116;2022-10-04T00:31:15;93804.88;;;8.85;85.80
21742;BME280;11033;47.490;11.116;2022-10-04T00:42:02;93800.91;;;8.65;85.52
21742;BME280;11033;47.490;11.116;2022-10-04T00:44:40;93802.69;;;8.56;83.77
21742;BME280;11033;47.490;11.116;2022-10-04T00:50:02;93800.78;;;8.33;86.96
21742;BME280;11033;47.490;11.116;2022-10-04T00:52:34;93792.25;;;8.31;87.24
21742;BME280;11033;47.490;11.116;2022-10-04T00:55:06;93793.88;;;8.32;86.41
21742;BME280;11033;47.490;11.116;2022-10-04T00:57:38;93793.19;;;8.13;87.33
21742;BME280;11033;47.490;11.116;2022-10-04T01:00:13;93791.25;;;8.23;86.12
21742;BME280;11033;47.490;11.116;2022-10-04T01:03:01;93793.22;;;8.21;85.68
21742;BME280;11033;47.490;11.116;2022-10-04T01:05:35;93791.88;;;8.17;86.14
21742;BME280;11033;47.490;11.116;2022-10-04T01:08:07;93782.38;;;8.16;86.17
21742;BME280;11033;47.490;11.116;2022-10-04T01:13:20;93782.28;;;7.92;87.84
21742;BME280;11033;47.490;11.116;2022-10-04T01:15:53;93788.56;;;8.07;86.65
21742;BME280;11033;47.490;11.116;2022-10-04T01:23:40;93786.03;;;7.81;88.69
21742;BME280;11033;47.490;11.116;2022-10-04T01:28:54;93779.88;;;7.73;88.18
21742;BME280;11033;47.490;11.116;2022-10-04T01:31:19;93781.69;;;7.72;87.47
21742;BME280;11033;47.490;11.116;2022-10-04T01:33:45;93785.94;;;7.73;86.87
21742;BME280;11033;47.490;11.116;2022-10-04T01:36:11;93781.09;;;7.52;89.02
21742;BME280;11033;47.490;11.116;2022-10-04T01:38:37;93774.81;;;7.71;87.83
21742;BME280;11033;47.490;11.116;2022-10-04T01:41:04;93776.25;;;7.66;87.13
21742;BME280;11033;47.490;11.116;2022-10-04T01:43:32;93772.66;;;7.67;87.44
21742;BME280;11033;47.490;11.116;2022-10-04T01:46:06;93770.97;;;7.57;87.79
21742;BME280;11033;47.490;11.116;2022-10-04T01:48:36;93768.31;;;7.49;87.78
21742;BME280;11033;47.490;11.116;2022-10-04T01:51:08;93777.34;;;7.55;87.70
21742;BME280;11033;47.490;11.116;2022-10-04T01:56:13;93778.41;;;7.36;89.62
21742;BME280;11033;47.490;11.116;2022-10-04T01:58:58;93777.41;;;7.37;89.49
21742;BME280;11033;47.490;11.116;2022-10-04T02:04:10;93777.31;;;7.47;86.80
21742;BME280;11033;47.490;11.116;2022-10-04T02:06:39;93773.81;;;7.38;87.21
21742;BME280;11033;47.490;11.116;2022-10-04T02:09:13;93785.22;;;7.29;89.10
21742;BME280;11033;47.490;11.116;2022-10-04T02:11:42;93776.09;;;7.33;87.49
21742;BME280;11033;47.490;11.116;2022-10-04T02:14:14;93770.50;;;7.28;87.48
21742;BME280;11033;47.490;11.116;2022-10-04T02:16:44;93766.38;;;7.25;87.85
21742;BME280;11033;47.490;11.116;2022-10-04T02:19:11;93758.47;;;7.17;87.42
21742;BME280;11033;47.490;11.116;2022-10-04T02:21:37;93755.38;;;7.22;87.96
21742;BME280;11033;47.490;11.116;2022-10-04T02:24:04;93755.19;;;6.97;88.80
21742;BME280;11033;47.490;11.116;2022-10-04T02:26:31;93748.41;;;7.13;87.58
21742;BME280;11033;47.490;11.116;2022-10-04T02:28:57;93745.75;;;7.05;88.20
21742;BME280;11033;47.490;11.116;2022-10-04T02:31:23;93742.81;;;7.08;87.65
21742;BME280;11033;47.490;11.116;2022-10-04T02:34:08;93749.72;;;7.09;87.43
21742;BME280;11033;47.490;11.116;2022-10-04T02:36:34;93756.31;;;6.95;88.77
21742;BME280;11033;47.490;11.116;2022-10-04T02:39:13;93755.72;;;7.01;87.18
21742;BME280;11033;47.490;11.116;2022-10-04T02:41:46;93755.81;;;6.91;88.45
21742;BME280;11033;47.490;11.116;2022-10-04T02:47:02;93734.44;;;6.78;89.56
21742;BME280;11033;47.490;11.116;2022-10-04T02:49:36;93744.78;;;6.62;91.40
21742;BME280;11033;47.490;11.116;2022-10-04T02:52:09;93739.69;;;6.78;88.79
21742;BME280;11033;47.490;11.116;2022-10-04T02:54:53;93736.41;;;6.76;88.48
21742;BME280;11033;47.490;11.116;2022-10-04T02:57:22;93731.81;;;6.78;88.91
21742;BME280;11033;47.490;11.116;2022-10-04T02:59:48;93734.75;;;6.75;87.16
21742;BME280;11033;47.490;11.116;2022-10-04T03:02:30;93748.69;;;6.58;90.26
21742;BME280;11033;47.490;11.116;2022-10-04T03:05:04;93742.97;;;6.45;91.09
21742;BME280;11033;47.490;11.116;2022-10-04T03:07:31;93753.63;;;6.61;88.69
21742;BME280;11033;47.490;11.116;2022-10-04T03:09:58;93746.81;;;6.68;88.30
21742;BME280;11033;47.490;11.116;2022-10-04T03:12:24;93744.56;;;6.55;89.52
21742;BME280;11033;47.490;11.116;2022-10-04T03:14:52;93747.69;;;6.41;90.31
21742;BME280;11033;47.490;11.116;2022-10-04T03:17:19;93745.69;;;6.35;90.99
21742;BME280;11033;47.490;11.116;2022-10-04T03:19:47;93748.50;;;6.42;90.73
21742;BME280;11033;47.490;11.116;2022-10-04T03:22:13;93744.47;;;6.29;91.69
21742;BME280;11033;47.490;11.116;2022-10-04T03:24:45;93740.53;;;6.25;91.80
21742;BME280;11033;47.490;11.116;2022-10-04T03:27:32;93743.72;;;6.19;92.10
21742;BME280;11033;47.490;11.116;2022-10-04T03:29:59;93738.44;;;6.29;90.35
21742;BME280;11033;47.490;11.116;2022-10-04T03:32:26;93742.84;;;6.28;90.66
21742;BME280;11033;47.490;11.116;2022-10-04T03:34:56;93738.88;;;6.24;90.23
21742;BME280;11033;47.490;11.116;2022-10-04T03:37:23;93739.41;;;6.10;91.81
21742;BME280;11033;47.490;11.116;2022-10-04T03:39:51;93738.22;;;6.22;90.43
21742;BME280;11033;47.490;11.116;2022-10-04T03:42:21;93746.56;;;6.26;89.43
21742;BME280;11033;47.490;11.116;2022-10-04T03:44:51;93743.06;;;6.17;90.19
21742;BME280;11033;47.490;11.116;2022-10-04T03:47:38;93749.03;;;6.27;88.62
21742;BME280;11033;47.490;11.116;2022-10-04T03:50:13;93743.66;;;6.11;90.95
21742;BME280;11033;47.490;11.116;2022-10-04T03:52:43;93732.75;;;6.16;91.03
21742;BME280;11033;47.490;11.116;2022-10-04T03:55:14;93735.50;;;6.14;90.24
21742;BME280;11033;47.490;11.116;2022-10-04T03:57:40;93742.31;;;6.25;89.11
21742;BME280;11033;47.490;11.116;2022-10-04T04:00:06;93731.94;;;6.15;90.12
21742;BME280;11033;47.490;11.116;2022-10-04T04:02:36;93737.16;;;6.15;90.14
21742;BME280;11033;47.490;11.116;2022-10-04T04:05:14;93736.78;;;6.10;90.19
21742;BME280;11033;47.490;11.116;2022-10-04T04:08:02;93734.38;;;6.17;88.80
21742;BME280;11033;47.490;11.116;2022-10-04T04:10:33;93737.69;;;6.19;88.59
21742;BME280;11033;47.490;11.116;2022-10-04T04:13:16;93732.22;;;6.12;89.35
21742;BME280;11033;47.490;11.116;2022-10-04T04:15:44;93737.47;;;6.12;88.65
21742;BME280;11033;47.490;11.116;2022-10-04T04:18:15;93731.56;;;6.10;89.73
21742;BME280;11033;47.490;11.116;2022-10-04T04:20:43;93724.97;;;6.06;89.77
21742;BME280;11033;47.490;11.116;2022-10-04T04:25:38;93726.53;;;5.99;90.24
21742;BME280;11033;47.490;11.116;2022-10-04T04:31:08;93724.91;;;5.98;89.08
21742;BME280;11033;47.490;11.116;2022-10-04T04:33:48;93724.31;;;6.04;88.93
21742;BME280;11033;47.490;11.116;2022-10-04T04:36:16;93727.34;;;5.99;88.79
21742;BME280;11033;47.490;11.116;2022-10-04T04:38:41;93730.72;;;5.92;90.24
21742;BME280;11033;47.490;11.116;2022-10-04T04:41:28;93724.38;;;5.85;90.07
21742;BME280;11033;47.490;11.116;2022-10-04T04:43:56;93735.94;;;5.92;89.14
21742;BME280;11033;47.490;11.116;2022-10-04T04:46:21;93729.59;;;5.94;88.52
21742;BME280;11033;47.490;11.116;2022-10-04T04:48:48;93732.59;;;5.99;88.50
21742;BME280;11033;47.490;11.116;2022-10-04T04:51:22;93733.88;;;5.86;89.45
21742;BME280;11033;47.490;11.116;2022-10-04T04:53:49;93730.44;;;5.85;89.96
21742;BME280;11033;47.490;11.116;2022-10-04T04:56:19;93729.06;;;5.91;89.32
21742;BME280;11033;47.490;11.116;2022-10-04T04:58:48;93731.53;;;5.92;89.15
21742;BME280;11033;47.490;11.116;2022-10-04T05:01:24;93724.06;;;5.97;87.90
21742;BME280;11033;47.490;11.116;2022-10-04T05:06:38;93729.59;;;5.85;88.31
21742;BME280;11033;47.490;11.116;2022-10-04T05:09:04;93734.81;;;5.85;88.68
21742;BME280;11033;47.490;11.116;2022-10-04T05:11:34;93738.41;;;5.84;88.67
21742;BME280;11033;47.490;11.116;2022-10-04T05:14:09;93736.50;;;5.86;89.54
21742;BME280;11033;47.490;11.116;2022-10-04T05:16:43;93732.66;;;5.90;88.41
21742;BME280;11033;47.490;11.116;2022-10-04T05:21:50;93727.94;;;5.84;89.50
21742;BME280;11033;47.490;11.116;2022-10-04T05:26:52;93730.19;;;5.79;89.47
21742;BME280;11033;47.490;11.116;2022-10-04T05:29:22;93731.28;;;5.86;88.63
21742;BME280;11033;47.490;11.116;2022-10-04T05:32:04;93732.34;;;5.93;88.27
21742;BME280;11033;47.490;11.116;2022-10-04T05:34:40;93733.72;;;5.97;87.65
21742;BME280;11033;47.490;11.116;2022-10-04T05:37:23;93726.53;;;5.99;88.30
21742;BME280;11033;47.490;11.116;2022-10-04T05:40:04;93734.47;;;6.07;87.62
21742;BME280;11033;47.490;11.116;2022-10-04T05:42:45;93741.34;;;6.08;87.58
21742;BME280;11033;47.490;11.116;2022-10-04T05:45:20;93733.63;;;6.07;87.18
21742;BME280;11033;47.490;11.116;2022-10-04T05:47:50;93743.94;;;6.08;86.93
21742;BME280;11033;47.490;11.116;2022-10-04T05:50:19;93745.13;;;5.96;88.95
21742;BME280;11033;47.490;11.116;2022-10-04T05:52:48;93746.19;;;6.03;89.68
21742;BME280;11033;47.490;11.116;2022-10-04T06:03:26;93744.03;;;6.16;89.26
21742;BME280;11033;47.490;11.116;2022-10-04T06:06:00;93731.03;;;6.24;89.06
21742;BME280;11033;47.490;11.116;2022-10-04T06:08:50;93743.97;;;6.26;90.35
21742;BME280;11033;47.490;11.116;2022-10-04T06:11:40;93741.94;;;6.38;88.94
21742;BME280;11033;47.490;11.116;2022-10-04T06:20:14;93759.81;;;6.60;88.76
21742;BME280;11033;47.490;11.116;2022-10-04T06:22:46;93755.25;;;6.62;89.17
21742;BME280;11033;47.490;11.116;2022-10-04T06:25:22;93757.72;;;6.63;89.99
21742;BME280;11033;47.490;11.116;2022-10-04T06:28:16;93749.84;;;6.81;89.54
21742;BME280;11033;47.490;11.116;2022-10-04T06:41:17;93736.78;;;7.33;87.81
21742;BME280;11033;47.490;11.116;2022-10-04T06:46:35;93733.59;;;7.55;87.53
21742;BME280;11033;47.490;11.116;2022-10-04T06:57:44;93725.13;;;8.04;87.06
21742;BME280;11033;47.490;11.116;2022-10-04T07:00:15;93732.84;;;8.13;87.96
21742;BME280;11033;47.490;11.116;2022-10-04T07:02:46;93730.41;;;8.28;86.71
21742;BME280;11033;47.490;11.116;2022-10-04T07:05:24;93731.94;;;8.39;87.51
21742;BME280;11033;47.490;11.116;2022-10-04T07:08:47;93736.25;;;8.56;87.59
21742;BME280;11033;47.490;11.116;2022-10-04T07:10:58;93735.59;;;8.70;87.87
21742;BME280;11033;47.490;11.116;2022-10-04T07:18:56;93737.22;;;9.12;86.71
21742;BME280;11033;47.490;11.116;2022-10-04T07:21:26;93743.63;;;9.26;85.05
21742;BME280;11033;47.490;11.116;2022-10-04T07:23:59;93750.97;;;9.38;85.21
21742;BME280;11033;47.490;11.116;2022-10-04T07:27:00;93755.53;;;9.52;86.04
21742;BME280;11033;47.490;11.116;2022-10-04T07:29:23;93749.25;;;9.70;85.75
21742;BME280;11033;47.490;11.116;2022-10-04T07:32:04;93763.34;;;9.85;85.92
21742;BME280;11033;47.490;11.116;2022-10-04T07:34:45;93762.81;;;9.98;85.56
21742;BME280;11033;47.490;11.116;2022-10-04T07:37:14;93762.25;;;10.10;84.50
21742;BME280;11033;47.490;11.116;2022-10-04T07:42:28;93752.84;;;10.24;84.80
21742;BME280;11033;47.490;11.116;2022-10-04T07:45:09;93745.78;;;10.16;84.06
21742;BME280;11033;47.490;11.116;2022-10-04T07:47:36;93739.44;;;10.42;82.56
21742;BME280;11033;47.490;11.116;2022-10-04T07:52:55;93738.28;;;10.67;83.17
21742;BME280;11033;47.490;11.116;2022-10-04T08:01:19;93743.06;;;11.09;82.27
21742;BME280;11033;47.490;11.116;2022-10-04T08:07:00;93743.22;;;11.46;81.84
21742;BME280;11033;47.490;11.116;2022-10-04T08:09:44;93742.84;;;11.49;80.87
21742;BME280;11033;47.490;11.116;2022-10-04T08:12:30;93741.56;;;11.44;80.01
21742;BME280;11033;47.490;11.116;2022-10-04T08:18:05;93732.91;;;11.88;79.49
21742;BME280;11033;47.490;11.116;2022-10-04T08:20:47;93739.00;;;12.03;79.18
21742;BME280;11033;47.490;11.116;2022-10-04T08:23:30;93733.53;;;12.05;78.44
21742;BME280;11033;47.490;11.116;2022-10-04T08:32:36;93720.16;;;11.77;75.43
21742;BME280;11033;47.490;11.116;2022-10-04T08:35:28;93721.66;;;12.16;75.89
21742;BME280;11033;47.490;11.116;2022-10-04T08:54:41;93724.19;;;13.17;73.56
21742;BME280;11033;47.490;11.116;2022-10-04T08:57:30;93727.19;;;13.14;71.94
21742;BME280;11033;47.490;11.116;2022-10-04T09:00:12;93736.38;;;13.40;71.49
21742;BME280;11033;47.490;11.116;2022-10-04T09:16:48;93748.78;;;14.36;70.58
21742;BME280;11033;47.490;11.116;2022-10-04T09:19:50;93738.06;;;14.57;70.45
21742;BME280;11033;47.490;11.116;2022-10-04T09:28:09;93734.88;;;14.88;68.84
21742;BME280;11033;47.490;11.116;2022-10-04T09:38:33;93733.31;;;15.53;63.85
21742;BME280;11033;47.490;11.116;2022-10-04T09:41:28;93734.13;;;15.54;63.81
21742;BME280;11033;47.490;11.116;2022-10-04T09:47:05;93724.22;;;16.27;64.83
21742;BME280;11033;47.490;11.116;2022-10-04T09:49:38;93716.56;;;16.51;65.61
21742;BME280;11033;47.490;11.116;2022-10-04T09:55:00;93731.03;;;16.68;65.81
21742;BME280;11033;47.490;11.116;2022-10-04T10:03:09;93724.44;;;17.15;65.36
21742;BME280;11033;47.490;11.116;2022-10-04T10:05:54;93717.41;;;17.21;61.75
21742;BME280;11033;47.490;11.116;2022-10-04T10:08:34;93715.56;;;17.21;62.63
21742;BME280;11033;47.490;11.116;2022-10-04T10:11:12;93709.00;;;17.24;60.88
21742;BME280;11033;47.490;11.116;2022-10-04T10:16:57;93711.66;;;17.49;63.72
21742;BME280;11033;47.490;11.116;2022-10-04T10:19:40;93713.78;;;17.40;61.20
21742;BME280;11033;47.490;11.116;2022-10-04T10:22:14;93712.91;;;17.46;62.48
21742;BME280;11033;47.490;11.116;2022-10-04T10:30:26;93717.66;;;18.12;63.06
21742;BME280;11033;47.490;11.116;2022-10-04T10:38:41;93713.38;;;18.11;60.59
21742;BME280;11033;47.490;11.116;2022-10-04T11:04:04;93704.78;;;19.54;57.68
21742;BME280;11033;47.490;11.116;2022-10-04T11:06:46;93704.78;;;19.89;58.15
21742;BME280;11033;47.490;11.116;2022-10-04T11:09:37;93706.34;;;19.02;53.38
21742;BME280;11033;47.490;11.116;2022-10-04T11:24:22;93683.56;;;21.76;46.17
21742;BME280;11033;47.490;11.116;2022-10-04T11:30:23;93679.38;;;23.33;51.39
21742;BME280;11033;47.490;11.116;2022-10-04T11:39:32;93671.75;;;23.79;45.47
21742;BME280;11033;47.490;11.116;2022-10-04T11:41:44;93674.22;;;23.54;39.93
21742;BME280;11033;47.490;11.116;2022-10-04T11:44:47;93679.78;;;24.58;44.13
21742;BME280;11033;47.490;11.116;2022-10-04T11:52:52;93672.53;;;27.18;40.67
21742;BME280;11033;47.490;11.116;2022-10-04T11:58:24;93655.59;;;29.15;37.83
21742;BME280;11033;47.490;11.116;2022-10-04T12:14:58;93636.19;;;29.64;33.17
21742;BME280;11033;47.490;11.116;2022-10-04T12:23:59;93628.09;;;32.06;32.15
21742;BME280;11033;47.490;11.116;2022-10-04T12:32:57;93619.50;;;29.15;30.25
21742;BME280;11033;47.490;11.116;2022-10-04T12:41:15;93612.19;;;33.10;33.24
21742;BME280;11033;47.490;11.116;2022-10-04T12:52:19;93610.13;;;33.16;30.82
21742;BME280;11033;47.490;11.116;2022-10-04T12:55:08;93612.59;;;33.69;33.49
21742;BME280;11033;47.490;11.116;2022-10-04T12:57:58;93617.06;;;31.31;32.18
21742;BME280;11033;47.490;11.116;2022-10-04T13:00:25;93609.03;;;34.20;32.86
21742;BME280;11033;47.490;11.116;2022-10-04T13:03:24;93604.34;;;32.29;26.70
21742;BME280;11033;47.490;11.116;2022-10-04T13:11:05;93606.13;;;34.34;29.92
21742;BME280;11033;47.490;11.116;2022-10-04T13:16:44;93599.97;;;34.46;27.11
21742;BME280;11033;47.490;11.116;2022-10-04T13:19:27;93610.50;;;35.11;29.60
21742;BME280;11033;47.490;11.116;2022-10-04T13:24:55;93605.31;;;35.89;28.02
21742;BME280;11033;47.490;11.116;2022-10-04T13:27:31;93621.78;;;35.89;29.24
21742;BME280;11033;47.490;11.116;2022-10-04T13:30:15;93608.16;;;33.82;27.70
21742;BME280;11033;47.490;11.116;2022-10-04T13:33:24;93620.34;;;34.10;27.04
21742;BME280;11033;47.490;11.116;2022-10-04T13:39:00;93614.66;;;37.24;30.38
21742;BME280;11033;47.490;11.116;2022-10-04T13:41:52;93603.25;;;34.22;26.08
21742;BME280;11033;47.490;11.116;2022-10-04T13:53:02;93615.06;;;35.99;26.51
21742;BME280;11033;47.490;11.116;2022-10-04T14:01:43;93627.41;;;33.51;29.01
21742;BME280;11033;47.490;11.116;2022-10-04T14:07:13;93626.72;;;32.17;32.77
21742;BME280;11033;47.490;11.116;2022-10-04T14:12:46;93633.00;;;35.25;28.47
21742;BME280;11033;47.490;11.116;2022-10-04T14:26:37;93634.69;;;36.22;29.12
21742;BME280;11033;47.490;11.116;2022-10-04T14:29:26;93638.25;;;36.43;28.07
21742;BME280;11033;47.490;11.116;2022-10-04T14:43:26;93637.09;;;35.91;28.45
21742;BME280;11033;47.490;11.116;2022-10-04T14:54:07;93646.69;;;38.21;26.05
21742;BME280;11033;47.490;11.116;2022-10-04T14:56:39;93651.53;;;37.48;26.09
21742;BME280;11033;47.490;11.116;2022-10-04T15:07:19;93648.72;;;36.41;26.81
21742;BME280;11033;47.490;11.116;2022-10-04T15:17:55;93663.94;;;36.72;27.36
21742;BME280;11033;47.490;11.116;2022-10-04T15:22:53;93657.19;;;35.53;28.02
21742;BME280;11033;47.490;11.116;2022-10-04T15:25:42;93662.88;;;36.31;27.34
21742;BME280;11033;47.490;11.116;2022-10-04T15:28:27;93661.50;;;36.04;27.66
21742;BME280;11033;47.490;11.116;2022-10-04T15:41:48;93672.41;;;31.90;32.37
21742;BME280;11033;47.490;11.116;2022-10-04T15:44:30;93678.72;;;32.74;31.64
21742;BME280;11033;47.490;11.116;2022-10-04T15:49:49;93679.09;;;30.00;35.11
21742;BME280;11033;47.490;11.116;2022-10-04T15:53:23;93681.53;;;30.34;34.37
21742;BME280;11033;47.490;11.116;2022-10-04T15:58:24;93685.91;;;27.88;36.22
21742;BME280;11033;47.490;11.116;2022-10-04T16:04:04;93689.56;;;30.25;33.48
21742;BME280;11033;47.490;11.116;2022-10-04T16:10:24;93688.97;;;28.68;34.96
21742;BME280;11033;47.490;11.116;2022-10-04T16:13:04;93695.69;;;28.99;34.56
21742;BME280;11033;47.490;11.116;2022-10-04T16:15:39;93686.34;;;28.63;35.50
21742;BME280;11033;47.490;11.116;2022-10-04T16:21:33;93688.75;;;26.23;38.66
21742;BME280;11033;47.490;11.116;2022-10-04T16:32:27;93690.69;;;21.09;47.93
21742;BME280;11033;47.490;11.116;2022-10-04T16:35:23;93696.53;;;19.79;50.40
21742;BME280;11033;47.490;11.116;2022-10-04T16:38:03;93701.03;;;20.37;49.24
21742;BME280;11033;47.490;11.116;2022-10-04T16:40:55;93706.06;;;19.75;50.57
21742;BME280;11033;47.490;11.116;2022-10-04T16:43:27;93701.88;;;19.55;50.52
21742;BME280;11033;47.490;11.116;2022-10-04T16:54:02;93719.06;;;17.96;56.72
21742;BME280;11033;47.490;11.116;2022-10-04T17:07:36;93724.34;;;16.97;57.00
21742;BME280;11033;47.490;11.116;2022-10-04T17:18:42;93731.88;;;15.84;59.94
21742;BME280;11033;47.490;11.116;2022-10-04T17:21:33;93732.06;;;15.56;62.50
21742;BME280;11033;47.490;11.116;2022-10-04T17:32:57;93747.50;;;14.73;63.47
21742;BME280;11033;47.490;11.116;2022-10-04T17:35:46;93753.97;;;14.51;66.38
21742;BME280;11033;47.490;11.116;2022-10-04T17:38:18;93755.19;;;14.48;64.73
21742;BME280;11033;47.490;11.116;2022-10-04T17:40:58;93752.97;;;14.24;64.91
21742;BME280;11033;47.490;11.116;2022-10-04T17:43:57;93755.22;;;14.27;66.04
21742;BME280;11033;47.490;11.116;2022-10-04T17:46:41;93761.03;;;14.03;64.35
21742;BME280;11033;47.490;11.116;2022-10-04T17:52:19;93753.94;;;13.75;66.77
21742;BME280;11033;47.490;11.116;2022-10-04T17:55:14;93758.31;;;13.61;66.77
21742;BME280;11033;47.490;11.116;2022-10-04T17:57:51;93756.19;;;13.50;68.59
21742;BME280;11033;47.490;11.116;2022-10-04T18:00:23;93760.50;;;13.30;68.79
21742;BME280;11033;47.490;11.116;2022-10-04T18:03:09;93760.94;;;13.33;67.16
21742;BME280;11033;47.490;11.116;2022-10-04T18:11:01;93752.59;;;12.94;69.80
21742;BME280;11033;47.490;11.116;2022-10-04T18:16:31;93760.41;;;12.81;70.23
21742;BME280;11033;47.490;11.116;2022-10-04T18:19:32;93756.00;;;12.66;68.45
21742;BME280;11033;47.490;11.116;2022-10-04T18:22:14;93757.22;;;12.49;70.31
21742;BME280;11033;47.490;11.116;2022-10-04T18:24:42;93754.59;;;12.49;70.25
21742;BME280;11033;47.490;11.116;2022-10-04T18:27:21;93765.47;;;12.25;74.13
21742;BME280;11033;47.490;11.116;2022-10-04T18:30:21;93760.47;;;12.15;72.76
21742;BME280;11033;47.490;11.116;2022-10-04T18:32:51;93766.94;;;12.13;72.02
21742;BME280;11033;47.490;11.116;2022-10-04T18:37:46;93769.94;;;12.10;70.66
21742;BME280;11033;47.490;11.116;2022-10-04T18:40:20;93775.22;;;11.95;74.96
21742;BME280;11033;47.490;11.116;2022-10-04T18:42:54;93772.31;;;11.90;74.80
21742;BME280;11033;47.490;11.116;2022-10-04T18:45:33;93775.22;;;11.95;69.76
21742;BME280;11033;47.490;11.116;2022-10-04T18:48:01;93775.16;;;11.88;73.58
21742;BME280;11033;47.490;11.116;2022-10-04T18:53:20;93779.50;;;11.81;71.91
21742;BME280;11033;47.490;11.116;2022-10-04T18:56:03;93767.78;;;11.61;73.70
21742;BME280;11033;47.490;11.116;2022-10-04T19:07:17;93758.03;;;11.32;74.09
21742;BME280;11033;47.490;11.116;2022-10-04T19:12:17;93758.72;;;11.11;76.77
21742;BME280;11033;47.490;11.116;2022-10-04T19:15:23;93774.25;;;11.06;77.75
21742;BME280;11033;47.490;11.116;2022-10-04T19:18:21;93779.50;;;11.06;77.75
21742;BME280;11033;47.490;11.116;2022-10-04T19:20:59;93772.47;;;10.98;76.22
21742;BME280;11033;47.490;11.116;2022-10-04T19:23:54;93780.91;;;10.94;74.91
21742;BME280;11033;47.490;11.116;2022-10-04T19:26:35;93784.41;;;10.86;76.90
21742;BME280;11033;47.490;11.116;2022-10-04T19:29:43;93783.59;;;10.86;78.17
21742;BME280;11033;47.490;11.116;2022-10-04T19:35:55;93792.25;;;10.71;79.55
21742;BME280;11033;47.490;11.116;2022-10-04T19:38:29;93803.16;;;10.68;76.75
21742;BME280;11033;47.490;11.116;2022-10-04T19:44:04;93809.22;;;10.69;77.59
21742;BME280;11033;47.490;11.116;2022-10-04T19:46:45;93818.25;;;10.74;78.21
21742;BME280;11033;47.490;11.116;2022-10-04T19:52:18;93823.28;;;10.61;77.15
21742;BME280;11033;47.490;11.116;2022-10-04T19:54:52;93830.19;;;10.62;79.47
21742;BME280;11033;47.490;11.116;2022-10-04T19:57:30;93826.44;;;10.57;77.91
21742;BME280;11033;47.490;11.116;2022-10-04T19:59:59;93818.56;;;10.48;79.41
21742;BME280;11033;47.490;11.116;2022-10-04T20:02:24;93821.72;;;10.44;81.62
21742;BME280;11033;47.490;11.116;2022-10-04T20:04:49;93815.28;;;10.46;77.59
21742;BME280;11033;47.490;11.116;2022-10-04T20:07:21;93818.28;;;10.43;79.46
21742;BME280;11033;47.490;11.116;2022-10-04T20:10:22;93817.81;;;10.32;80.18
21742;BME280;11033;47.490;11.116;2022-10-04T20:13:19;93819.44;;;10.41;80.10
21742;BME280;11033;47.490;11.116;2022-10-04T20:15:53;93818.97;;;10.29;81.61
21742;BME280;11033;47.490;11.116;2022-10-04T20:26:07;93839.56;;;10.17;80.83
21742;BME280;11033;47.490;11.116;2022-10-04T20:31:01;93838.25;;;10.22;80.07
21742;BME280;11033;47.490;11.116;2022-10-04T20:39:00;93842.53;;;10.14;80.90
21742;BME280;11033;47.490;11.116;2022-10-04T20:44:48;93854.41;;;10.02;82.39
21742;BME280;11033;47.490;11.116;2022-10-04T20:47:38;93856.53;;;10.07;79.67
21742;BME280;11033;47.490;11.116;2022-10-04T20:50:35;93860.00;;;9.99;82.17
21742;BME280;11033;47.490;11.116;2022-10-04T20:53:14;93869.41;;;9.85;82.03
21742;BME280;11033;47.490;11.116;2022-10-04T20:55:40;93857.44;;;9.67;83.76
21742;BME280;11033;47.490;11.116;2022-10-04T20:58:30;93853.63;;;9.85;80.46
21742;BME280;11033;47.490;11.116;2022-10-04T21:03:38;93863.00;;;9.88;80.39
21742;BME280;11033;47.490;11.116;2022-10-04T21:06:05;93861.69;;;9.92;79.47
21742;BME280;11033;47.490;11.116;2022-10-04T21:08:32;93862.03;;;9.81;79.34
21742;BME280;11033;47.490;11.116;2022-10-04T21:11:05;93859.75;;;9.78;82.24
21742;BME280;11033;47.490;11.116;2022-10-04T21:13:59;93860.72;;;9.69;82.00
21742;BME280;11033;47.490;11.116;2022-10-04T21:21:59;93865.00;;;9.53;83.70
21742;BME280;11033;47.490;11.116;2022-10-04T21:24:39;93870.91;;;9.64;81.24
21742;BME280;11033;47.490;11.116;2022-10-04T21:27:07;93866.81;;;9.61;82.06
21742;BME280;11033;47.490;11.116;2022-10-04T21:29:33;93870.59;;;9.50;82.85
21742;BME280;11033;47.490;11.116;2022-10-04T21:31:59;93871.56;;;9.58;80.39
21742;BME280;11033;47.490;11.116;2022-10-04T21:34:25;93871.56;;;9.58;81.22
21742;BME280;11033;47.490;11.116;2022-10-04T21:36:50;93876.69;;;9.51;82.30
21742;BME280;11033;47.490;11.116;2022-10-04T21:39:15;93879.47;;;9.49;81.74
21742;BME280;11033;47.490;11.116;2022-10-04T21:41:41;93877.81;;;9.48;81.86
21742;BME280;11033;47.490;11.116;2022-10-04T21:44:06;93874.53;;;9.46;80.59
21742;BME280;11033;47.490;11.116;2022-10-04T21:46:32;93865.66;;;9.39;80.52
21742;BME280;11033;47.490;11.116;2022-10-04T21:48:57;93872.56;;;9.32;82.35
21742;BME280;11033;47.490;11.116;2022-10-04T21:51:23;93869.94;;;9.24;83.52